Time;durP1;ratioP1;P1;durP2;ratioP2;P2;SDS_P1;SDS_P2;PMS_P1;PMS_P2;Temp;Humidity;BMP_temperature;BMP_pressure;BME280_temperature;BME280_humidity;BME280_pressure;Samples;Min_cycle;Max_cycle;Signal;HPM_P1;HPM_P2
2023/12/26 17:07:19;;;;;;;6.25;3.30;;;;;;;;;;5069927;28;20425;-71
2023/12/26 17:09:45;;;;;;;9.02;3.72;;;;;;;;;;5070312;28;20032;-68
2023/12/26 17:12:10;;;;;;;7.63;3.53;;;;;;;;;;5069755;28;20763;-68
2023/12/26 17:14:36;;;;;;;6.30;3.72;;;;;;;;;;5069847;28;20028;-68
2023/12/26 17:17:04;;;;;;;7.43;3.55;;;;;;;;;;5069713;28;20497;-68
2023/12/26 17:19:30;;;;;;;11.40;3.17;;;;;;;;;;5068287;28;20075;-68
2023/12/26 17:21:57;;;;;;;4.15;3.53;;;;;;;;;;5069518;28;20493;-68
2023/12/26 17:24:23;;;;;;;7.15;3.20;;;;;;;;;;5069914;28;20384;-69
2023/12/26 17:26:49;;;;;;;8.95;3.90;;;;;;;;;;5069458;28;20120;-69
2023/12/26 17:29:14;;;;;;;7.28;3.58;;;;;;;;;;5069722;28;20060;-70
2023/12/26 17:31:56;;;;;;;9.73;3.60;;;;;;;;;;5069637;28;20432;-68
2023/12/26 17:34:22;;;;;;;6.32;3.35;;;;;;;;;;5069587;28;20021;-68
2023/12/26 17:36:49;;;;;;;4.65;3.13;;;;;;;;;;5069126;28;20024;-71
2023/12/26 17:39:15;;;;;;;8.30;4.10;;;;;;;;;;5069150;28;20024;-68
2023/12/26 17:41:41;;;;;;;8.57;3.55;;;;;;;;;;5068423;28;20031;-69
2023/12/26 17:44:06;;;;;;;5.65;3.60;;;;;;;;;;5069097;28;20040;-69
2023/12/26 17:46:32;;;;;;;9.93;3.33;;;;;;;;;;5069077;28;20028;-70
2023/12/26 17:48:58;;;;;;;9.45;3.38;;;;;;;;;;5068979;28;20484;-70
2023/12/26 17:51:23;;;;;;;6.60;3.30;;;;;;;;;;5067121;28;20350;-68
2023/12/26 17:53:49;;;;;;;6.68;3.30;;;;;;;;;;5067421;28;20021;-69
2023/12/26 17:56:19;;;;;;;6.03;3.03;;;;;;;;;;5068767;28;20044;-69
2023/12/26 17:58:45;;;;;;;8.95;3.17;;;;;;;;;;5068875;28;20074;-69
2023/12/26 18:01:10;;;;;;;9.77;3.55;;;;;;;;;;5068756;28;20037;-69
2023/12/26 18:03:36;;;;;;;8.80;3.20;;;;;;;;;;5068754;28;20021;-69
2023/12/26 18:06:01;;;;;;;7.93;3.40;;;;;;;;;;5068447;28;20047;-69
2023/12/26 18:08:28;;;;;;;10.00;3.30;;;;;;;;;;5067346;28;20499;-69
2023/12/26 18:10:53;;;;;;;47.45;5.68;;;;;;;;;;5068470;28;20029;-70
2023/12/26 18:13:19;;;;;;;93.60;8.32;;;;;;;;;;5068532;28;20108;-70
2023/12/26 18:15:45;;;;;;;99.82;10.38;;;;;;;;;;5051287;28;20022;-69
2023/12/26 18:18:10;;;;;;;49.33;7.38;;;;;;;;;;5038016;28;20022;-71
2023/12/26 18:20:36;;;;;;;43.50;5.38;;;;;;;;;;5035349;28;20017;-68
2023/12/26 18:23:01;;;;;;;21.23;4.30;;;;;;;;;;5035258;28;20032;-70
2023/12/26 18:25:27;;;;;;;50.67;7.05;;;;;;;;;;5035187;28;20044;-69
2023/12/26 18:27:52;;;;;;;41.67;5.00;;;;;;;;;;5035202;28;20026;-69
2023/12/26 18:30:18;;;;;;;33.35;5.35;;;;;;;;;;5035580;28;20060;-68
2023/12/26 18:32:43;;;;;;;29.73;5.55;;;;;;;;;;5035090;28;20496;-69
2023/12/26 18:35:11;;;;;;;38.50;5.53;;;;;;;;;;5035073;28;20491;-69
2023/12/26 18:37:37;;;;;;;31.45;4.80;;;;;;;;;;5035267;28;20079;-69
2023/12/26 18:40:03;;;;;;;29.27;4.93;;;;;;;;;;5035244;28;20413;-68
2023/12/26 18:42:28;;;;;;;30.45;5.32;;;;;;;;;;5034834;28;20095;-69
2023/12/26 18:44:56;;;;;;;31.52;6.70;;;;;;;;;;5034779;28;20478;-68
2023/12/26 18:47:22;;;;;;;23.10;4.60;;;;;;;;;;5035162;28;20029;-69
2023/12/26 18:49:47;;;;;;;32.55;5.35;;;;;;;;;;5034847;28;20037;-68
2023/12/26 18:52:13;;;;;;;27.60;5.40;;;;;;;;;;5041128;28;20027;-69
2023/12/26 18:54:40;;;;;;;36.38;5.13;;;;;;;;;;5051666;28;20040;-69
2023/12/26 18:57:05;;;;;;;27.08;4.55;;;;;;;;;;5054680;28;20033;-68
2023/12/26 18:59:32;;;;;;;32.60;5.20;;;;;;;;;;5054686;28;20067;-68
2023/12/26 19:01:59;;;;;;;31.58;4.82;;;;;;;;;;5054314;28;20063;-70
2023/12/26 19:04:25;;;;;;;33.47;4.65;;;;;;;;;;5036516;28;20151;-68
2023/12/26 19:06:50;;;;;;;32.33;5.85;;;;;;;;;;5034157;28;20127;-71
2023/12/26 19:09:16;;;;;;;21.35;4.55;;;;;;;;;;5034257;28;20025;-68
2023/12/26 19:11:41;;;;;;;24.95;6.13;;;;;;;;;;5034328;28;20178;-68
2023/12/26 19:14:07;;;;;;;36.80;6.32;;;;;;;;;;5032952;28;20495;-69
2023/12/26 19:16:32;;;;;;;25.23;4.88;;;;;;;;;;5034031;28;20029;-70
2023/12/26 19:18:58;;;;;;;26.73;4.93;;;;;;;;;;5034216;28;20027;-68
2023/12/26 19:21:24;;;;;;;27.50;4.72;;;;;;;;;;5034102;28;20093;-68
2023/12/26 19:23:50;;;;;;;22.80;5.45;;;;;;;;;;5033997;28;20414;-68
2023/12/26 19:26:15;;;;;;;31.73;5.00;;;;;;;;;;5034332;28;20017;-68
2023/12/26 19:28:41;;;;;;;24.15;4.97;;;;;;;;;;5033064;28;20032;-68
2023/12/26 19:31:06;;;;;;;14.98;4.35;;;;;;;;;;5033780;28;20108;-68
2023/12/26 19:33:33;;;;;;;22.85;4.40;;;;;;;;;;5034210;28;20064;-68
2023/12/26 19:35:58;;;;;;;21.00;5.30;;;;;;;;;;5034100;28;20381;-68
2023/12/26 19:38:24;;;;;;;28.73;4.78;;;;;;;;;;5033787;28;20026;-72
2023/12/26 19:40:50;;;;;;;30.98;5.43;;;;;;;;;;5033753;28;20104;-69
2023/12/26 19:43:16;;;;;;;23.63;5.32;;;;;;;;;;5033602;28;20470;-68
2023/12/26 19:45:42;;;;;;;27.60;5.07;;;;;;;;;;5033622;28;20088;-69
2023/12/26 19:48:08;;;;;;;20.20;5.03;;;;;;;;;;5033579;28;20423;-69
2023/12/26 19:50:33;;;;;;;27.33;5.38;;;;;;;;;;5032662;28;20021;-68
2023/12/26 19:52:59;;;;;;;27.20;5.28;;;;;;;;;;5030265;28;20462;-68
2023/12/26 19:55:24;;;;;;;20.80;4.72;;;;;;;;;;5033325;28;20037;-67
2023/12/26 19:57:51;;;;;;;18.55;4.88;;;;;;;;;;5033519;28;20026;-71
2023/12/26 20:00:18;;;;;;;18.00;5.28;;;;;;;;;;5032108;28;20026;-68
2023/12/26 20:02:44;;;;;;;23.00;4.65;;;;;;;;;;5032998;28;20030;-68
2023/12/26 20:05:09;;;;;;;20.65;4.43;;;;;;;;;;5033075;28;20033;-68
2023/12/26 20:07:36;;;;;;;24.60;5.13;;;;;;;;;;5033289;28;20123;-68
2023/12/26 20:10:02;;;;;;;18.08;4.43;;;;;;;;;;5033224;28;20025;-68
2023/12/26 20:12:28;;;;;;;15.77;5.20;;;;;;;;;;5048500;28;20088;-71
2023/12/26 20:14:53;;;;;;;23.00;4.65;;;;;;;;;;5052912;28;20033;-68
2023/12/26 20:17:19;;;;;;;18.33;4.55;;;;;;;;;;5053198;28;20025;-68
2023/12/26 20:19:44;;;;;;;19.27;4.40;;;;;;;;;;5052827;28;20029;-69
2023/12/26 20:22:10;;;;;;;19.15;3.85;;;;;;;;;;5053128;28;20048;-68
2023/12/26 20:24:36;;;;;;;16.92;4.97;;;;;;;;;;5053012;28;20471;-68
2023/12/26 20:27:03;;;;;;;26.52;5.50;;;;;;;;;;5052831;28;20036;-68
2023/12/26 20:29:29;;;;;;;13.95;4.40;;;;;;;;;;5052780;28;20021;-70
2023/12/26 20:31:55;;;;;;;15.48;4.45;;;;;;;;;;5052979;28;20550;-69
2023/12/26 20:34:22;;;;;;;20.52;4.85;;;;;;;;;;5052622;28;20060;-69
2023/12/26 20:36:48;;;;;;;14.43;4.50;;;;;;;;;;5051411;28;20508;-69
2023/12/26 20:39:18;;;;;;;17.45;5.13;;;;;;;;;;5052618;28;20025;-69
2023/12/26 20:41:44;;;;;;;23.93;5.07;;;;;;;;;;5052269;28;20147;-69
2023/12/26 20:44:11;;;;;;;15.40;4.60;;;;;;;;;;5052677;28;20036;-67
2023/12/26 20:46:40;;;;;;;13.38;4.32;;;;;;;;;;5052827;28;20021;-69
2023/12/26 20:49:09;;;;;;;18.85;5.13;;;;;;;;;;5052551;28;20028;-70
2023/12/26 20:51:42;;;;;;;12.90;4.28;;;;;;;;;;5052560;28;20600;-69
2023/12/26 20:54:14;;;;;;;16.85;4.57;;;;;;;;;;5052602;28;20776;-68
2023/12/26 20:56:42;;;;;;;17.42;4.70;;;;;;;;;;5052635;28;20286;-69
2023/12/26 20:59:07;;;;;;;15.85;4.50;;;;;;;;;;5052777;28;20421;-69
2023/12/26 21:01:35;;;;;;;16.58;5.05;;;;;;;;;;5052403;28;20025;-70
2023/12/26 21:04:08;;;;;;;14.05;4.40;;;;;;;;;;5052384;28;20385;-69
2023/12/26 21:06:34;;;;;;;13.75;4.85;;;;;;;;;;5052323;28;20409;-71
2023/12/26 21:09:00;;;;;;;11.05;4.15;;;;;;;;;;5052235;28;20036;-69
2023/12/26 21:11:25;;;;;;;14.02;4.82;;;;;;;;;;5052376;28;20036;-71
2023/12/26 21:13:54;;;;;;;17.85;4.50;;;;;;;;;;5052481;28;20492;-70
2023/12/26 21:16:20;;;;;;;11.40;4.18;;;;;;;;;;5052161;28;20048;-70
2023/12/26 21:18:47;;;;;;;11.63;4.35;;;;;;;;;;5052170;28;20025;-71
2023/12/26 21:21:13;;;;;;;15.95;5.15;;;;;;;;;;5052440;28;20044;-68
2023/12/26 21:23:40;;;;;;;12.02;4.32;;;;;;;;;;5052011;28;20025;-67
2023/12/26 21:26:18;;;;;;;11.38;4.45;;;;;;;;;;5052502;28;20462;-70
2023/12/26 21:28:44;;;;;;;15.23;4.30;;;;;;;;;;5052036;28;20036;-70
2023/12/26 21:31:10;;;;;;;14.00;3.88;;;;;;;;;;5052205;28;20062;-69
2023/12/26 21:33:37;;;;;;;11.52;5.07;;;;;;;;;;5051877;28;20027;-72
2023/12/26 21:36:03;;;;;;;10.65;4.47;;;;;;;;;;5048831;28;20462;-72
2023/12/26 21:38:28;;;;;;;10.15;4.40;;;;;;;;;;5052177;28;20029;-69
2023/12/26 21:40:55;;;;;;;14.00;4.30;;;;;;;;;;5050834;28;20099;-70
2023/12/26 21:43:21;;;;;;;8.25;3.63;;;;;;;;;;5050753;28;20033;-69
2023/12/26 21:45:47;;;;;;;12.25;4.50;;;;;;;;;;5050785;28;20495;-69
2023/12/26 21:48:13;;;;;;;12.25;4.10;;;;;;;;;;5051014;28;20025;-69
2023/12/26 21:50:40;;;;;;;13.13;4.53;;;;;;;;;;5052280;28;20432;-69
2023/12/26 21:53:07;;;;;;;12.45;4.55;;;;;;;;;;5053918;28;20347;-72
2023/12/26 21:55:33;;;;;;;11.35;4.25;;;;;;;;;;5053687;28;20100;-71
2023/12/26 21:57:58;;;;;;;14.48;4.60;;;;;;;;;;5055098;28;20023;-71
2023/12/26 22:00:24;;;;;;;8.68;4.07;;;;;;;;;;5055002;28;20525;-71
2023/12/26 22:02:50;;;;;;;10.52;4.50;;;;;;;;;;5055021;28;20031;-72
2023/12/26 22:05:17;;;;;;;11.75;4.25;;;;;;;;;;5054779;28;20037;-73
2023/12/26 22:07:43;;;;;;;9.52;4.30;;;;;;;;;;5055227;28;20056;-71
2023/12/26 22:10:10;;;;;;;10.70;4.03;;;;;;;;;;5055200;28;20056;-71
2023/12/26 22:12:36;;;;;;;7.43;4.03;;;;;;;;;;5055437;28;20493;-72
2023/12/26 22:15:01;;;;;;;9.88;4.55;;;;;;;;;;5055168;28;20040;-70
2023/12/26 22:17:27;;;;;;;11.02;4.63;;;;;;;;;;5055426;28;20021;-71
2023/12/26 22:19:52;;;;;;;11.90;4.50;;;;;;;;;;5055280;28;20029;-69
2023/12/26 22:22:18;;;;;;;11.60;4.57;;;;;;;;;;5055192;28;20029;-69
2023/12/26 22:24:43;;;;;;;13.90;4.75;;;;;;;;;;5055465;28;20474;-69
2023/12/26 22:27:10;;;;;;;7.93;4.25;;;;;;;;;;5055083;28;20033;-68
2023/12/26 22:29:38;;;;;;;14.35;4.18;;;;;;;;;;5054915;28;20028;-71
2023/12/26 22:32:04;;;;;;;9.57;4.07;;;;;;;;;;5055050;28;20025;-69
2023/12/26 22:34:29;;;;;;;13.18;4.30;;;;;;;;;;5055187;28;20397;-69
2023/12/26 22:36:55;;;;;;;7.22;3.72;;;;;;;;;;5055078;28;20025;-68
2023/12/26 22:39:20;;;;;;;10.88;4.47;;;;;;;;;;5054840;28;20024;-70
2023/12/26 22:41:46;;;;;;;11.00;4.50;;;;;;;;;;5053428;28;20029;-70
2023/12/26 22:44:14;;;;;;;9.93;3.97;;;;;;;;;;5054226;28;20021;-68
2023/12/26 22:46:39;;;;;;;8.32;4.13;;;;;;;;;;5055018;28;20393;-70
2023/12/26 22:49:05;;;;;;;7.03;4.00;;;;;;;;;;5054650;28;20067;-69
2023/12/26 22:51:30;;;;;;;12.52;3.88;;;;;;;;;;5054951;28;20025;-69
2023/12/26 22:53:56;;;;;;;7.80;3.90;;;;;;;;;;5054493;28;20401;-68
2023/12/26 22:56:22;;;;;;;12.88;3.90;;;;;;;;;;5054411;28;20065;-69
2023/12/26 22:58:47;;;;;;;8.70;4.15;;;;;;;;;;5054924;28;20021;-69
2023/12/26 23:01:14;;;;;;;9.98;4.13;;;;;;;;;;5054702;28;20033;-68
2023/12/26 23:03:42;;;;;;;13.52;4.18;;;;;;;;;;5054186;28;20060;-69
2023/12/26 23:06:08;;;;;;;9.88;3.28;;;;;;;;;;5054208;28;20482;-70
2023/12/26 23:08:34;;;;;;;10.23;3.80;;;;;;;;;;5053375;28;20116;-70
2023/12/26 23:10:59;;;;;;;8.23;4.63;;;;;;;;;;5053788;28;20029;-70
2023/12/26 23:13:26;;;;;;;7.25;3.60;;;;;;;;;;5053731;28;20389;-72
2023/12/26 23:15:51;;;;;;;9.23;3.58;;;;;;;;;;5053561;28;20495;-69
2023/12/26 23:18:17;;;;;;;6.55;3.70;;;;;;;;;;5052311;28;20127;-69
2023/12/26 23:20:42;;;;;;;9.05;3.70;;;;;;;;;;5053449;28;20355;-69
2023/12/26 23:23:08;;;;;;;8.15;3.80;;;;;;;;;;5053338;28;20412;-71
2023/12/26 23:25:34;;;;;;;7.03;3.85;;;;;;;;;;5053885;28;20025;-69
2023/12/26 23:28:00;;;;;;;9.15;4.28;;;;;;;;;;5053931;28;20032;-69
2023/12/26 23:30:25;;;;;;;10.93;3.80;;;;;;;;;;5053996;28;20028;-70
2023/12/26 23:32:52;;;;;;;10.38;4.32;;;;;;;;;;5053750;28;20104;-69
2023/12/26 23:35:18;;;;;;;7.75;3.50;;;;;;;;;;5053707;28;20037;-68
2023/12/26 23:37:45;;;;;;;12.15;3.88;;;;;;;;;;5053735;28;20092;-68
2023/12/26 23:40:11;;;;;;;10.10;3.85;;;;;;;;;;5053574;28;20167;-69
2023/12/26 23:42:37;;;;;;;9.80;4.32;;;;;;;;;;5053413;28;20025;-69
2023/12/26 23:45:02;;;;;;;9.98;4.07;;;;;;;;;;5051968;28;20021;-71
2023/12/26 23:47:28;;;;;;;9.10;4.15;;;;;;;;;;5052923;28;20047;-70
2023/12/26 23:49:54;;;;;;;8.50;3.65;;;;;;;;;;5052862;28;20076;-70
2023/12/26 23:52:19;;;;;;;7.63;3.67;;;;;;;;;;5052930;28;20124;-71
2023/12/26 23:54:45;;;;;;;10.68;3.90;;;;;;;;;;5052714;28;20021;-71
2023/12/26 23:57:10;;;;;;;7.65;3.35;;;;;;;;;;5052854;28;20024;-70
2023/12/26 23:59:36;;;;;;;9.07;3.80;;;;;;;;;;5052985;28;20413;-70
